createdAt,value
2022-08-05T00:00:16.159Z,78.94
2022-08-05T00:02:33.841Z,77.55
2022-08-05T00:04:55.370Z,79.30
2022-08-05T00:07:27.490Z,78.67
2022-08-05T00:09:50.831Z,80.30
2022-08-05T00:12:07.865Z,79.82
2022-08-05T00:14:31.538Z,80.82
2022-08-05T00:16:53.044Z,81.18
2022-08-05T00:19:10.787Z,81.04
2022-08-05T00:21:30.522Z,81.30
2022-08-05T00:23:53.595Z,82.13
2022-08-05T00:26:24.592Z,81.93
2022-08-05T00:28:41.573Z,81.69
2022-08-05T00:31:04.101Z,82.21
2022-08-05T00:34:54.740Z,82.23
2022-08-05T00:36:16.281Z,82.25
2022-08-05T00:38:37.635Z,82.07
2022-08-05T00:40:54.602Z,82.43
2022-08-05T00:43:11.869Z,81.67
2022-08-05T00:45:38.294Z,81.69
2022-08-05T00:48:05.910Z,82.05
2022-08-05T00:50:25.477Z,82.40
2022-08-05T00:52:45.409Z,82.18
2022-08-05T00:55:03.842Z,80.97
2022-08-05T00:57:21.204Z,82.56
2022-08-05T00:59:44.529Z,81.63
2022-08-05T01:02:02.518Z,82.25
2022-08-05T01:04:20.254Z,82.43
2022-08-05T01:06:48.486Z,81.94
2022-08-05T01:09:06.983Z,81.25
2022-08-05T01:11:37.057Z,81.47
2022-08-05T01:13:59.045Z,81.50
2022-08-05T01:16:21.055Z,81.34
2022-08-05T01:18:43.412Z,82.27
2022-08-05T01:21:05.779Z,81.80
2022-08-05T01:23:23.569Z,81.32
2022-08-05T01:25:41.637Z,82.69
2022-08-05T01:27:59.064Z,82.11
2022-08-05T01:30:18.727Z,79.61
2022-08-05T01:32:36.120Z,82.21
2022-08-05T01:34:54.643Z,82.31
2022-08-05T01:37:24.846Z,82.07
2022-08-05T01:39:47.083Z,82.74
2022-08-05T01:42:05.370Z,82.35
2022-08-05T01:44:22.655Z,82.14
2022-08-05T01:46:51.361Z,82.91
2022-08-05T01:49:23.352Z,81.92
2022-08-05T01:51:42.475Z,82.98
2022-08-05T01:54:09.918Z,83.24
2022-08-05T01:58:12.359Z,82.78
2022-08-05T01:59:03.935Z,82.30
2022-08-05T02:01:23.316Z,83.04
2022-08-05T02:03:42.422Z,81.79
2022-08-05T02:06:03.578Z,81.94
2022-08-05T02:08:40.974Z,84.12
2022-08-05T02:11:12.066Z,84.29
2022-08-05T02:13:36.446Z,83.30
2022-08-05T02:16:05.902Z,80.44
2022-08-05T02:18:31.053Z,79.60
2022-08-05T02:20:51.521Z,78.55
2022-08-05T02:23:10.029Z,78.91
2022-08-05T02:25:33.430Z,78.50
2022-08-05T02:28:08.732Z,80.83
2022-08-05T02:30:26.771Z,81.83
2022-08-05T02:32:44.029Z,80.59
2022-08-05T02:35:09.613Z,81.26
2022-08-05T02:37:31.992Z,81.44
2022-08-05T02:39:51.544Z,81.05
2022-08-05T02:42:09.533Z,81.33
2022-08-05T02:44:44.238Z,77.04
2022-08-05T02:47:01.564Z,76.34
2022-08-05T02:49:19.857Z,74.58
2022-08-05T02:52:03.749Z,73.31
2022-08-05T02:54:35.794Z,76.76
2022-08-05T02:56:53.165Z,75.12
2022-08-05T02:59:10.223Z,76.76
2022-08-05T03:01:27.898Z,75.01
2022-08-05T03:04:02.059Z,75.66
2022-08-05T03:06:55.569Z,76.80
2022-08-05T03:08:58.985Z,76.10
2022-08-05T03:11:54.545Z,75.67
2022-08-05T03:14:02.756Z,75.61
2022-08-05T03:16:20.905Z,76.95
2022-08-05T03:18:37.933Z,75.90
2022-08-05T03:20:59.224Z,76.90
2022-08-05T03:23:17.908Z,76.94
2022-08-05T03:26:30.537Z,77.82
2022-08-05T03:28:11.817Z,76.97
2022-08-05T03:30:33.929Z,77.51
2022-08-05T03:32:51.294Z,79.01
2022-08-05T03:35:09.083Z,78.95
2022-08-05T03:37:26.628Z,80.13
2022-08-05T03:39:47.421Z,81.87
2022-08-05T03:42:18.018Z,81.99
2022-08-05T03:44:35.050Z,81.04
2022-08-05T03:46:52.339Z,81.50
2022-08-05T03:49:09.362Z,82.08
2022-08-05T03:52:38.144Z,80.20
2022-08-05T03:55:51.093Z,81.47
2022-08-05T03:56:41.780Z,82.96
2022-08-05T03:58:59.037Z,82.67
2022-08-05T04:01:16.126Z,82.81
2022-08-05T04:03:38.009Z,82.75
2022-08-05T04:05:55.524Z,82.10
2022-08-05T04:08:30.235Z,83.45
2022-08-05T04:10:52.186Z,82.01
2022-08-05T04:13:09.616Z,80.85
2022-08-05T04:15:26.707Z,81.85
2022-08-05T04:17:57.247Z,80.09
2022-08-05T04:20:17.054Z,82.02
2022-08-05T04:22:34.113Z,81.71
2022-08-05T04:24:52.609Z,81.01
2022-08-05T04:27:11.062Z,80.38
2022-08-05T04:29:28.367Z,80.51
2022-08-05T04:31:48.280Z,82.77
2022-08-05T04:34:31.128Z,81.50
2022-08-05T04:36:45.634Z,82.95
2022-08-05T04:39:03.686Z,82.94
2022-08-05T04:41:34.060Z,83.40
2022-08-05T04:43:54.364Z,83.82
2022-08-05T04:46:11.943Z,83.28
2022-08-05T04:48:31.411Z,84.21
2022-08-05T04:51:01.547Z,82.62
2022-08-05T04:53:20.181Z,84.17
2022-08-05T04:56:32.376Z,84.52
2022-08-05T04:58:14.807Z,85.04
2022-08-05T05:00:38.747Z,83.46
2022-08-05T05:02:59.129Z,85.51
2022-08-05T05:05:28.281Z,84.75
2022-08-05T05:07:56.135Z,84.59
2022-08-05T05:10:13.717Z,85.44
2022-08-05T05:12:30.999Z,85.10
2022-08-05T05:14:50.642Z,86.06
2022-08-05T05:17:09.555Z,83.67
2022-08-05T05:19:36.171Z,84.71
2022-08-05T05:21:55.566Z,85.34
2022-08-05T05:24:12.712Z,84.45
2022-08-05T05:26:32.981Z,83.32
2022-08-05T05:28:50.446Z,84.07
2022-08-05T05:31:08.992Z,84.05
2022-08-05T05:33:26.990Z,85.00
2022-08-05T05:35:44.991Z,85.39
2022-08-05T05:38:02.506Z,84.55
2022-08-05T05:40:19.906Z,85.08
2022-08-05T05:42:36.851Z,84.91
2022-08-05T05:44:54.200Z,83.69
2022-08-05T05:47:21.612Z,84.56
2022-08-05T05:49:47.342Z,84.96
2022-08-05T05:52:28.425Z,84.91
2022-08-05T05:54:50.404Z,85.38
2022-08-05T05:57:13.832Z,86.67
2022-08-05T05:59:40.322Z,85.26
2022-08-05T06:01:58.217Z,84.43
2022-08-05T06:04:15.935Z,85.45
2022-08-05T06:06:34.932Z,83.61
2022-08-05T06:08:52.199Z,84.29
2022-08-05T06:11:11.703Z,86.01
2022-08-05T06:13:30.827Z,85.63
2022-08-05T06:16:29.067Z,84.59
2022-08-05T06:18:39.281Z,84.74
2022-08-05T06:20:57.508Z,85.46
2022-08-05T06:23:14.693Z,84.24
2022-08-05T06:26:12.583Z,85.37
2022-08-05T06:28:12.061Z,83.69
2022-08-05T06:30:39.951Z,85.16
2022-08-05T06:32:58.395Z,85.10
2022-08-05T06:36:03.059Z,83.96
2022-08-05T06:37:57.878Z,84.20
2022-08-05T06:40:18.569Z,84.82
2022-08-05T06:42:39.842Z,86.14
2022-08-05T06:44:57.329Z,87.39
2022-08-05T06:47:30.069Z,86.97
2022-08-05T06:50:01.983Z,85.58
2022-08-05T06:52:37.315Z,85.29
2022-08-05T06:54:55.263Z,84.11
2022-08-05T06:57:56.662Z,85.58
2022-08-05T06:59:57.953Z,86.61
2022-08-05T07:02:15.331Z,86.46
2022-08-05T07:04:40.041Z,84.69
2022-08-05T07:06:59.646Z,85.63
2022-08-05T07:09:16.956Z,85.60
2022-08-05T07:11:39.863Z,85.37
2022-08-05T07:13:59.923Z,84.60
2022-08-05T07:18:00.303Z,83.84
2022-08-05T07:18:54.336Z,84.25
2022-08-05T07:21:12.067Z,83.18
2022-08-05T07:23:29.799Z,83.80
2022-08-05T07:25:56.212Z,82.71
2022-08-05T07:28:17.206Z,83.97
2022-08-05T07:30:38.171Z,82.56
2022-08-05T07:32:57.395Z,83.23
2022-08-05T07:36:03.869Z,81.95
2022-08-05T07:37:52.915Z,82.03
2022-08-05T07:40:27.111Z,82.22
2022-08-05T07:42:47.329Z,81.19
2022-08-05T07:45:09.231Z,80.93
2022-08-05T07:47:26.391Z,80.21
2022-08-05T07:49:54.543Z,81.19
2022-08-05T07:52:11.697Z,78.72
2022-08-05T07:54:31.043Z,80.86
2022-08-05T07:57:01.988Z,80.78
2022-08-05T07:59:38.860Z,81.06
2022-08-05T08:01:58.522Z,83.51
2022-08-05T08:04:15.925Z,82.89
2022-08-05T08:06:33.003Z,81.98
2022-08-05T08:08:49.977Z,83.72
2022-08-05T08:11:09.001Z,82.48
2022-08-05T08:13:30.947Z,82.99
2022-08-05T08:16:50.038Z,83.63
2022-08-05T08:18:37.567Z,84.39
2022-08-05T08:21:02.474Z,82.62
2022-08-05T08:24:01.931Z,84.24
2022-08-05T08:25:59.732Z,82.76
2022-08-05T08:28:35.363Z,82.30
2022-08-05T08:30:52.939Z,82.24
2022-08-05T08:33:13.620Z,81.83
2022-08-05T08:35:34.725Z,82.62
2022-08-05T08:37:57.825Z,83.09
2022-08-05T08:40:14.795Z,82.89
2022-08-05T08:42:50.434Z,84.16
2022-08-05T08:45:19.237Z,82.33
2022-08-05T08:48:06.233Z,83.52
2022-08-05T08:50:30.131Z,83.79
2022-08-05T08:52:51.669Z,84.22
2022-08-05T08:55:11.128Z,82.73
2022-08-05T08:57:48.300Z,83.32
2022-08-05T09:00:07.784Z,84.18
2022-08-05T09:02:26.953Z,83.80
2022-08-05T09:04:57.766Z,83.48
2022-08-05T09:07:28.931Z,82.58
2022-08-05T09:09:46.238Z,83.09
2022-08-05T09:12:20.068Z,84.16
2022-08-05T09:14:56.816Z,83.97
2022-08-05T09:17:40.486Z,83.68
2022-08-05T09:20:01.403Z,83.94
2022-08-05T09:22:30.802Z,83.85
2022-08-05T09:24:48.731Z,83.99
2022-08-05T09:27:06.038Z,84.97
2022-08-05T09:29:30.908Z,83.41
2022-08-05T09:32:40.331Z,83.15
2022-08-05T09:34:26.007Z,81.37
2022-08-05T09:36:54.084Z,82.07
2022-08-05T09:39:16.494Z,81.48
2022-08-05T09:41:38.263Z,81.40
2022-08-05T09:43:56.092Z,81.07
2022-08-05T09:46:15.529Z,82.52
2022-08-05T09:48:32.504Z,81.77
2022-08-05T09:50:49.843Z,80.74
2022-08-05T09:53:06.778Z,79.30
2022-08-05T09:55:56.563Z,78.47
2022-08-05T09:58:03.424Z,77.32
2022-08-05T10:00:20.365Z,77.62
2022-08-05T10:02:41.739Z,76.09
2022-08-05T10:04:59.047Z,77.01
2022-08-05T10:07:20.865Z,75.97
2022-08-05T10:10:13.738Z,74.34
2022-08-05T10:12:33.747Z,75.20
2022-08-05T10:14:51.085Z,75.12
2022-08-05T10:17:38.006Z,75.16
2022-08-05T10:20:03.702Z,76.64
2022-08-05T10:22:29.532Z,76.75
2022-08-05T10:24:47.447Z,75.33
2022-08-05T10:27:07.779Z,76.84
2022-08-05T10:30:06.676Z,77.89
2022-08-05T10:32:53.604Z,75.76
2022-08-05T10:34:40.877Z,75.17
2022-08-05T10:36:58.287Z,73.55
2022-08-05T10:39:25.209Z,72.22
2022-08-05T10:41:52.732Z,70.16
2022-08-05T10:44:09.799Z,69.00
2022-08-05T10:46:26.804Z,68.47
2022-08-05T10:48:56.551Z,68.19
2022-08-05T10:51:21.814Z,69.36
2022-08-05T10:53:39.857Z,67.92
2022-08-05T10:56:05.168Z,64.92
2022-08-05T10:58:35.757Z,65.50
2022-08-05T11:00:54.971Z,64.67
2022-08-05T11:03:23.683Z,64.51
2022-08-05T11:05:43.457Z,62.88
2022-08-05T11:08:12.715Z,62.76
2022-08-05T11:10:38.478Z,62.70
2022-08-05T11:13:07.549Z,60.63
2022-08-05T11:15:59.294Z,60.32
2022-08-05T11:18:04.133Z,59.48
2022-08-05T11:20:24.090Z,60.62
2022-08-05T11:22:43.859Z,59.46
2022-08-05T11:26:03.510Z,60.51
2022-08-05T11:27:51.347Z,60.46
2022-08-05T11:30:09.121Z,60.96
2022-08-05T11:32:27.591Z,60.48
2022-08-05T11:34:47.473Z,60.28
2022-08-05T11:38:36.951Z,58.58
2022-08-05T11:39:48.215Z,59.45
2022-08-05T11:42:06.720Z,60.00
2022-08-05T11:44:52.730Z,58.66
2022-08-05T11:47:10.945Z,58.70
2022-08-05T11:49:29.190Z,60.22
2022-08-05T11:51:51.242Z,60.11
2022-08-05T11:54:09.672Z,60.02
2022-08-05T11:56:40.581Z,60.57
2022-08-05T11:58:58.404Z,60.76
2022-08-05T12:01:19.121Z,62.32
2022-08-05T12:03:36.366Z,63.11
2022-08-05T12:05:53.765Z,63.97
2022-08-05T12:08:17.975Z,63.94
2022-08-05T12:10:43.589Z,63.81
2022-08-05T12:13:03.587Z,62.67
2022-08-05T12:15:38.494Z,59.44
2022-08-05T12:18:02.914Z,60.04
2022-08-05T12:20:26.466Z,58.88
2022-08-05T12:22:46.720Z,59.40
2022-08-05T12:25:09.057Z,59.72
2022-08-05T12:27:32.956Z,60.29
2022-08-05T12:29:56.773Z,60.86
2022-08-05T12:32:14.342Z,61.38
2022-08-05T12:34:31.706Z,62.13
2022-08-05T12:36:49.959Z,64.00
2022-08-05T12:39:07.129Z,62.75
2022-08-05T12:41:24.225Z,64.20
2022-08-05T12:43:52.590Z,64.50
2022-08-05T12:46:12.336Z,63.51
2022-08-05T12:48:32.568Z,65.35
2022-08-05T12:50:50.098Z,68.38
2022-08-05T12:53:08.744Z,69.03
2022-08-05T12:55:28.861Z,70.15
2022-08-05T12:58:52.568Z,69.53
2022-08-05T13:01:59.711Z,71.62
2022-08-05T13:03:12.290Z,71.95
2022-08-05T13:05:37.504Z,71.42
2022-08-05T13:07:59.186Z,72.51
2022-08-05T13:10:19.665Z,72.17
2022-08-05T13:12:42.686Z,71.82
2022-08-05T13:15:16.306Z,72.38
2022-08-05T13:17:41.725Z,72.17
2022-08-05T13:19:59.552Z,72.26
2022-08-05T13:22:28.325Z,65.75
2022-08-05T13:24:57.246Z,63.72
2022-08-05T13:27:16.931Z,60.77
2022-08-05T13:29:40.358Z,61.27
2022-08-05T13:32:21.436Z,61.80
2022-08-05T13:34:48.051Z,62.89
2022-08-05T13:37:05.810Z,63.23
2022-08-05T13:40:14.996Z,61.26
2022-08-05T13:42:01.622Z,62.62
2022-08-05T13:44:20.000Z,63.34
2022-08-05T13:46:50.641Z,63.44
2022-08-05T13:49:13.953Z,63.02
2022-08-05T13:51:36.394Z,63.91
2022-08-05T13:53:56.555Z,63.05
2022-08-05T13:56:18.075Z,62.01
2022-08-05T13:58:36.143Z,60.97
2022-08-05T14:00:57.661Z,60.37
2022-08-05T14:03:15.162Z,60.93
2022-08-05T14:06:24.406Z,60.18
2022-08-05T14:08:20.464Z,61.00
2022-08-05T14:10:44.820Z,61.63
2022-08-05T14:13:02.112Z,60.64
2022-08-05T14:16:04.985Z,60.49
2022-08-05T14:17:59.750Z,61.38
2022-08-05T14:20:18.450Z,60.39
2022-08-05T14:22:35.639Z,61.71
2022-08-05T14:24:53.316Z,61.26
2022-08-05T14:27:18.186Z,61.33
2022-08-05T14:29:35.737Z,60.87
2022-08-05T14:32:03.777Z,61.04
2022-08-05T14:34:30.319Z,61.29
2022-08-05T14:36:52.612Z,59.56
2022-08-05T14:39:11.021Z,59.99
2022-08-05T14:41:28.115Z,60.50
2022-08-05T14:44:01.976Z,59.84
2022-08-05T14:46:22.663Z,58.64
2022-08-05T14:48:49.252Z,59.36
2022-08-05T14:51:08.492Z,58.20
2022-08-05T14:53:27.050Z,57.24
2022-08-05T14:55:52.064Z,56.77
2022-08-05T14:58:11.857Z,56.89
2022-08-05T15:00:32.546Z,57.87
2022-08-05T15:02:49.678Z,57.91
2022-08-05T15:05:08.733Z,58.50
2022-08-05T15:08:06.113Z,57.87
2022-08-05T15:10:09.836Z,58.40
2022-08-05T15:12:27.640Z,57.85
2022-08-05T15:14:50.579Z,57.87
2022-08-05T15:17:09.962Z,56.93
2022-08-05T15:19:48.887Z,58.60
2022-08-05T15:22:06.528Z,58.77
2022-08-05T15:24:23.521Z,57.25
2022-08-05T15:26:41.454Z,56.84
2022-08-05T15:29:02.466Z,57.01
2022-08-05T15:31:19.692Z,57.43
2022-08-05T15:34:18.291Z,56.58
2022-08-05T15:36:17.389Z,56.62
2022-08-05T15:38:44.724Z,57.20
2022-08-05T15:41:22.649Z,58.19
2022-08-05T15:43:45.993Z,58.88
2022-08-05T15:46:04.635Z,58.85
2022-08-05T15:48:21.753Z,58.81
2022-08-05T15:50:38.740Z,58.27
2022-08-05T15:52:57.653Z,58.67
2022-08-05T15:55:25.069Z,58.36
2022-08-05T15:57:57.365Z,58.25
2022-08-05T16:00:16.873Z,58.46
2022-08-05T16:02:43.555Z,59.24
2022-08-05T16:05:00.898Z,58.52
2022-08-05T16:07:18.208Z,57.30
2022-08-05T16:09:35.193Z,56.08
2022-08-05T16:11:54.047Z,56.43
2022-08-05T16:14:17.237Z,56.35
2022-08-05T16:16:34.774Z,54.89
2022-08-05T16:18:52.773Z,55.69
2022-08-05T16:21:11.027Z,54.69
2022-08-05T16:23:51.012Z,54.58
2022-08-05T16:26:08.498Z,52.97
2022-08-05T16:28:25.543Z,52.76
2022-08-05T16:30:44.877Z,51.47
2022-08-05T16:33:02.250Z,53.38
2022-08-05T16:35:19.264Z,51.76
2022-08-05T16:38:03.378Z,51.56
2022-08-05T16:40:26.669Z,53.42
2022-08-05T16:42:46.938Z,53.52
2022-08-05T16:46:07.855Z,52.70
2022-08-05T16:47:53.324Z,53.38
2022-08-05T16:50:15.597Z,52.72
2022-08-05T16:52:34.175Z,53.23
2022-08-05T16:54:52.587Z,52.85
2022-08-05T16:57:22.078Z,52.46
2022-08-05T17:00:00.237Z,51.42
2022-08-05T17:02:18.191Z,51.96
2022-08-05T17:04:35.551Z,52.92
2022-08-05T17:07:00.513Z,53.11
2022-08-05T17:09:18.437Z,51.70
2022-08-05T17:11:48.726Z,51.72
2022-08-05T17:14:06.623Z,54.03
2022-08-05T17:16:32.598Z,51.80
2022-08-05T17:18:50.423Z,52.08
2022-08-05T17:21:07.807Z,52.67
2022-08-05T17:24:04.503Z,52.96
2022-08-05T17:26:02.383Z,52.20
2022-08-05T17:28:19.531Z,53.35
2022-08-05T17:30:50.403Z,51.77
2022-08-05T17:33:08.855Z,52.31
2022-08-05T17:35:25.994Z,51.97
2022-08-05T17:37:50.649Z,53.09
2022-08-05T17:40:10.227Z,50.78
2022-08-05T17:42:30.056Z,50.58
2022-08-05T17:44:50.357Z,51.74
2022-08-05T17:47:08.734Z,52.26
2022-08-05T17:49:28.852Z,52.19
2022-08-05T17:52:06.055Z,51.89
2022-08-05T17:54:23.262Z,51.89
2022-08-05T17:56:40.578Z,52.97
2022-08-05T17:59:02.061Z,53.95
2022-08-05T18:01:19.632Z,53.97
2022-08-05T18:06:16.091Z,54.72
2022-08-05T18:08:34.578Z,53.51
2022-08-05T18:10:51.669Z,54.42
2022-08-05T18:13:12.350Z,54.30
2022-08-05T18:15:31.167Z,54.88
2022-08-05T18:17:58.890Z,55.00
2022-08-05T18:20:29.226Z,56.00
2022-08-05T18:22:54.708Z,57.84
2022-08-05T18:25:17.052Z,59.52
2022-08-05T18:27:34.207Z,57.16
2022-08-05T18:29:54.922Z,57.26
2022-08-05T18:32:12.688Z,56.91
2022-08-05T18:34:41.014Z,57.84
2022-08-05T18:36:58.479Z,56.61
2022-08-05T18:39:41.849Z,57.49
2022-08-05T18:41:55.542Z,57.66
2022-08-05T18:44:33.233Z,58.42
2022-08-05T18:46:52.895Z,59.50
2022-08-05T18:49:09.888Z,59.78
2022-08-05T18:52:06.204Z,60.55
2022-08-05T18:54:05.498Z,60.69
2022-08-05T18:56:25.210Z,61.77
2022-08-05T18:58:42.978Z,62.09
2022-08-05T19:01:01.298Z,61.76
2022-08-05T19:03:18.477Z,61.69
2022-08-05T19:06:12.306Z,61.41
2022-08-05T19:08:32.694Z,63.41
2022-08-05T19:10:50.079Z,63.68
2022-08-05T19:13:12.268Z,64.71
2022-08-05T19:15:57.292Z,64.70
2022-08-05T19:18:20.872Z,65.82
2022-08-05T19:20:41.440Z,64.54
2022-08-05T19:23:00.356Z,66.06
2022-08-05T19:25:21.565Z,65.11
2022-08-05T19:27:46.744Z,66.52
2022-08-05T19:30:07.132Z,66.15
2022-08-05T19:32:27.890Z,66.26
2022-08-05T19:34:55.145Z,66.56
2022-08-05T19:37:13.021Z,66.94
2022-08-05T19:39:32.005Z,67.17
2022-08-05T19:42:07.957Z,67.12
2022-08-05T19:44:29.204Z,67.38
2022-08-05T19:46:47.161Z,67.08
2022-08-05T19:49:08.311Z,67.98
2022-08-05T19:52:05.861Z,68.22
2022-08-05T19:54:21.894Z,68.60
2022-08-05T19:56:47.756Z,69.99
2022-08-05T19:59:21.408Z,69.60
2022-08-05T20:01:43.739Z,69.83
2022-08-05T20:04:00.739Z,69.84
2022-08-05T20:06:29.088Z,70.26
2022-08-05T20:08:47.602Z,71.30
2022-08-05T20:11:05.852Z,70.93
2022-08-05T20:13:54.426Z,72.34
2022-08-05T20:15:59.874Z,70.62
2022-08-05T20:18:32.623Z,71.40
2022-08-05T20:20:51.256Z,70.72
2022-08-05T20:23:12.673Z,71.30
2022-08-05T20:25:33.874Z,71.73
2022-08-05T20:27:56.983Z,71.43
2022-08-05T20:30:15.611Z,72.67
2022-08-05T20:32:36.702Z,72.39
2022-08-05T20:35:02.446Z,72.75
2022-08-05T20:38:06.669Z,73.06
2022-08-05T20:39:58.239Z,73.80
2022-08-05T20:42:15.723Z,72.09
2022-08-05T20:44:38.788Z,72.09
2022-08-05T20:46:56.921Z,72.72
2022-08-05T20:49:13.997Z,72.16
2022-08-05T20:51:32.080Z,73.43
2022-08-05T20:53:56.215Z,73.64
2022-08-05T20:56:15.238Z,72.14
2022-08-05T20:58:45.283Z,73.44
2022-08-05T21:01:02.494Z,73.67
2022-08-05T21:03:21.731Z,72.28
2022-08-05T21:05:53.582Z,74.28
2022-08-05T21:08:11.260Z,72.63
2022-08-05T21:10:28.451Z,74.93
2022-08-05T21:12:58.123Z,74.50
2022-08-05T21:15:22.669Z,75.35
2022-08-05T21:17:39.834Z,75.54
2022-08-05T21:19:56.866Z,75.37
2022-08-05T21:22:17.614Z,74.41
2022-08-05T21:24:35.061Z,76.73
2022-08-05T21:26:58.238Z,74.99
2022-08-05T21:29:16.798Z,74.75
2022-08-05T21:31:41.274Z,76.19
2022-08-05T21:34:00.134Z,74.84
2022-08-05T21:36:19.235Z,75.48
2022-08-05T21:38:47.290Z,76.60
2022-08-05T21:41:04.478Z,76.65
2022-08-05T21:43:24.802Z,75.98
2022-08-05T21:45:56.566Z,76.48
2022-08-05T21:48:15.183Z,76.29
2022-08-05T21:50:33.597Z,76.11
2022-08-05T21:52:50.855Z,76.78
2022-08-05T21:55:07.987Z,76.53
2022-08-05T21:57:32.898Z,76.78
2022-08-05T22:00:05.369Z,77.38
2022-08-05T22:02:24.357Z,76.77
2022-08-05T22:04:41.405Z,76.96
2022-08-05T22:06:59.278Z,77.44
2022-08-05T22:09:21.149Z,76.40
2022-08-05T22:11:40.895Z,76.63
2022-08-05T22:14:06.587Z,77.59
2022-08-05T22:16:51.195Z,77.60
2022-08-05T22:19:57.300Z,77.92
2022-08-05T22:21:46.899Z,77.38
2022-08-05T22:24:09.080Z,77.74
2022-08-05T22:26:30.348Z,77.43
2022-08-05T22:28:47.389Z,77.79
2022-08-05T22:31:06.809Z,77.85
2022-08-05T22:33:57.348Z,77.79
2022-08-05T22:36:02.098Z,78.11
2022-08-05T22:38:20.184Z,78.21
2022-08-05T22:40:37.435Z,77.90
2022-08-05T22:42:58.237Z,77.97
2022-08-05T22:45:15.531Z,77.77
2022-08-05T22:47:33.666Z,78.25
2022-08-05T22:50:20.984Z,78.06
2022-08-05T22:52:32.414Z,78.06
2022-08-05T22:54:51.640Z,78.41
2022-08-05T22:57:08.748Z,78.59
2022-08-05T22:59:44.066Z,78.61
2022-08-05T23:02:06.221Z,78.83
2022-08-05T23:04:24.882Z,78.94
2022-08-05T23:06:42.552Z,79.08
2022-08-05T23:09:27.212Z,78.92
2022-08-05T23:11:36.707Z,78.68
2022-08-05T23:13:54.218Z,78.90
2022-08-05T23:16:11.634Z,78.91
2022-08-05T23:18:29.756Z,78.26
2022-08-05T23:20:53.133Z,77.97
2022-08-05T23:23:11.841Z,78.39
2022-08-05T23:25:55.015Z,78.05
2022-08-05T23:28:07.677Z,78.27
2022-08-05T23:30:27.094Z,78.70
2022-08-05T23:32:46.404Z,78.60
2022-08-05T23:35:06.413Z,78.51
2022-08-05T23:37:23.543Z,78.53
2022-08-05T23:39:53.598Z,79.46
2022-08-05T23:42:14.447Z,79.91
2022-08-05T23:44:31.751Z,79.07
2022-08-05T23:46:49.839Z,79.51
2022-08-05T23:49:15.816Z,80.16
2022-08-05T23:51:33.721Z,80.05
2022-08-05T23:53:51.182Z,80.06
2022-08-05T23:56:20.145Z,79.14
2022-08-05T23:58:44.669Z,79.15
